Tiempo atmosférico en la estación meteorológica de Cáseda, Navarra (440 m.)

Fecha
DESCASC
Temp. máxima en grados centígrados (hora)
DESCASC
Temp. mínima en grados centígrados (hora)
DESCASC
Temp. media en grados centígrados
DESCASC
Racha de viento máxima en m/sg (hora)
DESCASC
Velocidad máxima media en intervalos de 10 minutos(hora)
DESCASC
Precipitaciones diarias en mm
DESCASC
Precipitaciones de 00:00 a 06:00 en mm
DESCASC
Precipitaciones de 06:00 a 12:00 en mm
DESCASC
Precipitaciones de 12:00 a 18:00 en mm
DESCASC
Precipitaciones de 18:00 a 24:00 en mm
DESCASC
21-08-2017 36.3 (17:00) 11.8 (07:20) 24 8.33 (15:30) 5 (21:30) 0 0 0 0 0
20-08-2017 30.5 (16:20) 13.3 (05:40) 21.9 8.33 (17:10) 4.44 (17:20) 0 0 0 0 0
19-08-2017 29.3 (16:00) 16.4 (23:59) 22.8 8.89 (16:50) 5.28 (16:50) 0 0 0 0 0
18-08-2017 30.3 (14:50) 18.8 (07:50) 24.5 14.17 (18:20) 7.22 (18:50) 0 0 0 0 0
17-08-2017 35.5 (18:00) 13.6 (00:00) 24.6 6.94 (19:50) 4.17 (19:20) 0 0 0 0 0
16-08-2017 32.5 (16:30) 17.3 (00:00) 24.9 8.61 (19:10) 5.28 (19:10) 0 0 0 0 0
15-08-2017 34.7 (16:30) 17.2 (00:00) 26 9.72 (14:30) 6.11 (14:30) 0.2 0 0.2 0 0
14-08-2017 36.1 (16:00) 15.5 (07:10) 25.8 18.33 (21:50) 8.89 (22:00) 1.6 0 0 0 1.6
13-08-2017 33.1 (18:10) 13.6 (00:00) 23.3 6.67 (15:10) 2.78 (15:20) 0 0 0 0 0
12-08-2017 30.5 (16:30) 11.8 (00:00) 21.2 8.89 (18:30) 4.72 (18:30) 0 0 0 0 0
11-08-2017 23.2 (16:20) 11.7 (00:00) 17.5 11.67 (15:50) 6.39 (15:50) 0 0 0 0 0
10-08-2017 20.5 (14:40) 12.9 (00:00) 16.7 11.11 (16:50) 6.67 (17:10) 0 0 0 0 0
09-08-2017 21.4 (17:00) 10.8 (00:00) 16.1 13.89 (15:00) 7.78 (17:30) 0 0 0 0 0
08-08-2017 23.9 (16:20) 14.6 (00:00) 19.3 13.33 (16:30) 6.94 (13:30) 0 0 0 0 0
07-08-2017 34 (16:20) 17.6 (00:00) 25.8 10 (21:50) 5.28 (13:50) 0 0 0 0 0
06-08-2017 29.5 (17:20) 14.9 (00:00) 22.2 10 (01:00) 4.72 (01:20) 7 7 0 0 0
05-08-2017 31.5 (14:10) 18.9 (00:00) 25.2 11.94 (17:30) 6.11 (18:50) 0 0 0 0 0
04-08-2017 35.6 (16:30) 19.5 (00:00) 27.5 9.72 (19:20) 6.11 (18:50) 0 0 0 0 0
03-08-2017 38 (18:00) 19.4 (00:00) 28.7 7.78 (14:20) 5 (14:20) 0 0 0 0 0
02-08-2017 36.7 (17:40) 15.8 (00:00) 26.3 13.06 (14:40) 8.06 (15:50) 0 0 0 0 0
01-08-2017 31.7 (17:20) 17.7 (00:00) 24.7 6.94 (17:30) 4.17 (17:40) 0 0 0 0 0
31-07-2017 36.6 (17:50) 17 (00:00) 26.8 10.83 (18:40) 6.39 (15:50) 0 0 0 0 0
30-07-2017 37.7 (17:50) 20.4 (00:00) 29.1 10.28 (16:10) 5.83 (15:50) 0 0 0 0 0
29-07-2017 37.1 (16:50) 16.1 (00:00) 26.6 11.39 (13:20) 6.67 (13:50) 0 0 0 0 0
28-07-2017 35.7 (17:40) 18 (00:00) 26.9 8.89 (19:00) 4.72 (19:40) 0 0 0 0 0
27-07-2017 34.3 (16:10) 13.8 (00:00) 24 9.17 (19:00) 5.28 (19:00) 0 0 0 0 0
26-07-2017 29.1 (17:20) 14.9 (00:00) 22 10 (18:30) 5.83 (16:50) 0 0 0 0 0
25-07-2017 23.2 (14:50) 15.4 (00:00) 19.3 14.72 (17:20) 8.06 (11:50) 0 0 0 0 0
24-07-2017 24.3 (13:00) 17 (00:00) 20.6 13.33 (18:10) 7.78 (18:10) 0 0 0 0 0
23-07-2017 30.4 (16:30) 14.6 (00:00) 22.5 9.44 (18:50) 5.83 (18:50) 0 0 0 0 0

Gráficas

Temp. máximas Temp. mínimas Temp. medias Precipitaciones Rachas de viento máximas Velocidades máximas media en intervalos de 10 minutos

Datos horarios

Fecha y hora oficial Temperatura (ºC) Velocidad del viento (km/h) Dirección del viento Racha (km/h) Dirección de racha Precipitación (mm) Presión (hPa) Tendencia (hPa) Humedad (%)
2017-08-21 23:00:00 25.5 5 Noroeste 10 Noroeste 0 -- -- 35
2017-08-21 22:00:00 29 4 Nordeste 26 Sur 0 -- -- 29
2017-08-21 21:00:00 30.3 17 Sur 23 Sur 0 -- -- 27
2017-08-21 20:00:00 33.9 16 Sur 25 Sur 0 -- -- 23
2017-08-21 19:00:00 35.4 13 Sur 27 Sur 0 -- -- 21
2017-08-21 18:00:00 36.1 10 Sudoeste 26 Sudoeste 0 -- -- 21
2017-08-21 17:00:00 36.3 11 Sudoeste 30 Sur 0 -- -- 22
2017-08-21 16:00:00 35.5 14 Sur 30 Sur 0 -- -- 24
2017-08-21 15:00:00 34.6 13 Sur 28 Sur 0 -- -- 25
2017-08-21 14:00:00 32.9 14 Sudoeste 29 Sur 0 -- -- 29
2017-08-21 13:00:00 28.9 5 Noroeste 12 Noroeste 0 -- -- 40
2017-08-21 12:00:00 24.6 6 Noroeste 11 Noroeste 0 -- -- 42
2017-08-21 11:00:00 21.1 5 Nordeste 9 Nordeste 0 -- -- 54
2017-08-21 10:00:00 18.3 4 Nordeste 9 Nordeste 0 -- -- 62
2017-08-21 09:00:00 15.1 2 Norte 6 Nordeste 0 -- -- 74
2017-08-21 08:00:00 12.2 0 Calma 5 Oeste 0 -- -- 83
2017-08-21 07:00:00 12 4 Oeste 8 Oeste 0 -- -- 81
2017-08-21 06:00:00 12.9 2 Sudeste 6 Este 0 -- -- 80
2017-08-21 05:00:00 13.9 2 Sur 6 Sudeste 0 -- -- 75
2017-08-21 04:00:00 15.7 7 Sudeste 11 Este 0 -- -- 69
2017-08-21 03:00:00 16.8 6 Sudeste 18 Sudeste 0 -- -- 66
2017-08-21 02:00:00 17.6 9 Sudeste 19 Sudeste 0 -- -- 64
2017-08-21 01:00:00 18.4 10 Sudeste 17 Sudeste 0 -- -- 62
2017-08-21 00:00:00 18.8 8 Sudoeste 12 Nordeste 0 -- -- 59
2017-08-20 23:00:00 20.6 5 Norte 13 Nordeste 0 -- -- 53
2017-08-20 22:00:00 21.7 7 Este 18 Este 0 -- -- 49
2017-08-20 21:00:00 23.3 14 Noroeste 25 Norte 0 -- -- 44
2017-08-20 20:00:00 26.8 12 Noroeste 27 Norte 0 -- -- 35
2017-08-20 19:00:00 27.8 13 Norte 27 Norte 0 -- -- 33
2017-08-20 18:00:00 29.2 12 Norte 30 Noroeste 0 -- -- 30
2017-08-20 17:00:00 30 13 Norte 27 Norte 0 -- -- 28
2017-08-20 16:00:00 30.2 14 Noroeste 25 Noroeste 0 -- -- 26
2017-08-20 15:00:00 29.4 11 Noroeste 22 Noroeste 0 -- -- 27
2017-08-20 14:00:00 27.6 12 Noroeste 26 Noroeste 0 -- -- 29
2017-08-20 13:00:00 26.2 8 Norte 17 Norte 0 -- -- 32
2017-08-20 12:00:00 23.6 6 Norte 18 Norte 0 -- -- 39
2017-08-20 11:00:00 22.2 8 Nordeste 19 Norte 0 -- -- 43
2017-08-20 10:00:00 19.8 9 Nordeste 15 Este 0 -- -- 51
2017-08-20 09:00:00 17.2 12 Este 23 Nordeste 0 -- -- 60
2017-08-20 08:00:00 14.6 10 Este 20 Este 0 -- -- 68
2017-08-20 07:00:00 14 8 Este 16 Este 0 -- -- 70
2017-08-20 06:00:00 13.5 5 Este 10 Sudeste 0 -- -- 74
2017-08-20 05:00:00 14.1 5 Sudeste 14 Nordeste 0 -- -- 73
2017-08-20 04:00:00 14.9 13 Nordeste 21 Nordeste 0 -- -- 71
2017-08-20 03:00:00 15.3 6 Nordeste 18 Norte 0 -- -- 71
2017-08-20 02:00:00 15.7 5 Norte 16 Norte 0 -- -- 70
2017-08-20 01:00:00 16.3 9 Norte 23 Nordeste 0 -- -- 69
2017-08-20 00:00:00 16.4 3 Noroeste 9 Noroeste 0 -- -- 67
2017-08-19 23:00:00 17.6 6 Oeste 14 Oeste 0 -- -- 64
2017-08-19 22:00:00 18.9 8 Noroeste 25 Noroeste 0 -- -- 60
2017-08-19 21:00:00 21.1 7 Noroeste 21 Noroeste 0 -- -- 51
2017-08-19 20:00:00 24.2 8 Noroeste 26 Norte 0 -- -- 43
2017-08-19 19:00:00 25.9 13 Norte 29 Norte 0 -- -- 35
2017-08-19 18:00:00 27.2 15 Norte 30 Norte 0 -- -- 35
2017-08-19 17:00:00 28.3 17 Nordeste 32 Norte 0 -- -- 32
2017-08-19 16:00:00 29.3 13 Norte 27 Norte 0 -- -- 30
2017-08-19 15:00:00 28.3 12 Norte 23 Nordeste 0 -- -- 32
2017-08-19 14:00:00 27.1 8 Norte 19 Noroeste 0 -- -- 32
2017-08-19 13:00:00 25.8 10 Norte 29 Norte 0 -- -- 37
2017-08-19 12:00:00 24.5 14 Norte 27 Noroeste 0 -- -- 42
2017-08-19 11:00:00 23.1 13 Norte 28 Noroeste 0 -- -- 47
2017-08-19 10:00:00 21.4 12 Norte 29 Nordeste 0 -- -- 54
2017-08-19 09:00:00 19.1 8 Norte 23 Noroeste 0 -- -- 64
2017-08-19 08:00:00 17.3 6 Noroeste 22 Norte 0 -- -- 70
2017-08-19 07:00:00 17.1 8 Noroeste 18 Noroeste 0 -- -- 72
2017-08-19 06:00:00 17.2 9 Noroeste 18 Noroeste 0 -- -- 71
2017-08-19 05:00:00 17.9 13 Noroeste 26 Noroeste 0 -- -- 69
2017-08-19 04:00:00 18 11 Noroeste 25 Noroeste 0 -- -- 69
2017-08-19 03:00:00 18 7 Norte 19 Noroeste 0 -- -- 70
2017-08-19 02:00:00 18.3 11 Norte 20 Noroeste 0 -- -- 69
2017-08-19 01:00:00 18.7 7 Norte 17 Noroeste 0 -- -- 69
2017-08-19 00:00:00 19.1 8 Norte 26 Norte 0 -- -- 69
2017-08-18 23:00:00 19.4 11 Norte 23 Nordeste 0 -- -- 68
2017-08-18 22:00:00 20.3 8 Noroeste 19 Norte 0 -- -- 68
2017-08-18 21:00:00 21.7 10 Noroeste 36 Norte 0 -- -- 65
2017-08-18 20:00:00 22.5 15 Norte 42 Nordeste 0 -- -- 63
2017-08-18 19:00:00 23.6 19 Norte 51 Norte 0 -- -- 60
2017-08-18 18:00:00 24.5 24 Norte 48 Noroeste 0 -- -- 54
2017-08-18 17:00:00 26.4 24 Nordeste 38 Norte 0 -- -- 52
2017-08-18 16:00:00 28.5 17 Norte 37 Norte 0 -- -- 48
2017-08-18 15:00:00 30.1 15 Norte 31 Noroeste 0 -- -- 46
2017-08-18 14:00:00 29.6 11 Norte 24 Noroeste 0 -- -- 47
2017-08-18 13:00:00 29.5 14 Norte 24 Norte 0 -- -- 47
2017-08-18 12:00:00 27.9 6 Nordeste 12 Nordeste 0 -- -- 50
2017-08-18 11:00:00 25.3 5 Nordeste 12 Este 0 -- -- 55
2017-08-18 10:00:00 23.3 6 Este 10 Este 0 -- -- 60
2017-08-18 09:00:00 21.1 3 Este 9 Este 0 -- -- 68
2017-08-18 08:00:00 18.9 3 Sur 14 Sudeste 0 -- -- 76
2017-08-18 07:00:00 19 8 Este 14 Este 0 -- -- 76
2017-08-18 06:00:00 19.7 5 Sudeste 13 Nordeste 0 -- -- 68
2017-08-18 05:00:00 19.3 5 Sudeste 9 Sudoeste 0 -- -- 67
2017-08-18 04:00:00 20.2 2 Noroeste 4 Nordeste 0 -- -- 64
2017-08-18 03:00:00 21.2 2 Sudeste 5 Este 0 -- -- 59
2017-08-18 02:00:00 21.9 3 Sudeste 4 Este 0 -- -- 58
2017-08-18 01:00:00 23.7 3 Sur 12 Este 0 -- -- 52
2017-08-18 00:00:00 25 7 Sudeste 17 Este 0 -- -- 47
2017-08-17 23:00:00 25.3 9 Sudeste 13 Este 0 -- -- 44
2017-08-17 22:00:00 27.6 3 Nordeste 13 Norte 0 -- -- 38
2017-08-17 21:00:00 29.3 4 Sudeste 18 Nordeste 0 -- -- 38
2017-08-17 20:00:00 32.5 10 Norte 25 Norte 0 -- -- 30
2017-08-17 19:00:00 34.8 14 Nordeste 23 Norte 0 -- -- 28
2017-08-17 18:00:00 35.5 4 Norte 15 Nordeste 0 -- -- 25
2017-08-17 17:00:00 35.4 6 Norte 17 Este 0 -- -- 26
2017-08-17 16:00:00 34.7 8 Nordeste 17 Nordeste 0 -- -- 27
2017-08-17 15:00:00 33.7 8 Norte 15 Nordeste 0 -- -- 27
2017-08-17 14:00:00 31.4 6 Nordeste 11 Nordeste 0 -- -- 32
2017-08-17 13:00:00 28.7 4 Nordeste 10 Este 0 -- -- 31
2017-08-17 12:00:00 25.7 5 Nordeste 9 Nordeste 0 -- -- 45
2017-08-17 11:00:00 22.2 4 Este 9 Norte 0 -- -- 55
2017-08-17 10:00:00 19.7 4 Norte 11 Este 0 -- -- 67
2017-08-17 09:00:00 18 7 Este 12 Este 0 -- -- 71
2017-08-17 08:00:00 14.9 5 Sudeste 6 Sudeste 0 -- -- 84
2017-08-17 07:00:00 14.1 2 Sudeste 5 Sudeste 0 -- -- 85
2017-08-17 06:00:00 14.8 0 Calma 9 Este 0 -- -- 81
2017-08-17 05:00:00 15.4 2 Sudeste 10 Sudeste 0 -- -- 80
2017-08-17 04:00:00 15.9 6 Sudeste 12 Sudeste 0 -- -- 78
2017-08-17 03:00:00 17.3 7 Sudeste 13 Sudeste 0 -- -- 71
2017-08-17 02:00:00 18.5 7 Sudeste 17 Sudeste 0 -- -- 68
2017-08-17 01:00:00 19.2 8 Sudeste 15 Sudeste 0 -- -- 62
2017-08-17 00:00:00 19.6 4 Sudeste 10 Nordeste 0 -- -- 56
2017-08-16 23:00:00 20.7 4 Sudeste 12 Nordeste 0 -- -- 51
2017-08-16 22:00:00 21.9 6 Nordeste 18 Noroeste 0 -- -- 51
2017-08-16 21:00:00 23.1 8 Noroeste 22 Oeste 0 -- -- 52
2017-08-16 20:00:00 25.8 12 Noroeste 31 Noroeste 0 -- -- 55
2017-08-16 19:00:00 28.2 17 Noroeste 29 Noroeste 0 -- -- 49
2017-08-16 18:00:00 30.6 12 Norte 26 Noroeste 0 -- -- 40
2017-08-16 17:00:00 32.3 13 Norte 24 Norte 0 -- -- 29
2017-08-16 16:00:00 32.2 7 Noroeste 15 Norte 0 -- -- 39
2017-08-16 15:00:00 30.9 6 Nordeste 24 Noroeste 0 -- -- 41
2017-08-16 14:00:00 30 5 Oeste 21 Sudoeste 0 -- -- 45
2017-08-16 13:00:00 28.1 8 Nordeste 15 Nordeste 0 -- -- 51
2017-08-16 12:00:00 25.2 4 Norte 13 Nordeste 0 -- -- 60
2017-08-16 11:00:00 23.4 7 Este 16 Este 0 -- -- 65
2017-08-16 10:00:00 21.5 7 Nordeste 13 Este 0 -- -- 71
2017-08-16 09:00:00 19 5 Nordeste 13 Este 0 -- -- 80
2017-08-16 08:00:00 17.3 2 Nordeste 11 Sudeste 0 -- -- 84
2017-08-16 07:00:00 17.4 3 Este 10 Sudeste 0 -- -- 84
2017-08-16 06:00:00 17.8 5 Sudeste 12 Sudeste 0 -- -- 83
2017-08-16 05:00:00 17.9 8 Sudeste 14 Sudeste 0 -- -- 82
2017-08-16 04:00:00 18.3 9 Sudeste 16 Este 0 -- -- 80
2017-08-16 03:00:00 18.7 9 Este 17 Este 0 -- -- 79
2017-08-16 02:00:00 19.1 9 Este 18 Este 0 -- -- 77
2017-08-16 01:00:00 19.7 9 Este 17 Este 0 -- -- 75
2017-08-16 00:00:00 20.3 9 Este 18 Este 0 -- -- 72
2017-08-15 23:00:00 20.5 5 Sudeste 9 Este 0 -- -- 71
2017-08-15 22:00:00 21.8 4 Este 12 Este 0 -- -- 66
2017-08-15 21:00:00 23.3 7 Este 23 Nordeste 0 -- -- 62
2017-08-15 20:00:00 25.1 11 Nordeste 22 Nordeste 0 -- -- 58
2017-08-15 19:00:00 28.9 9 Norte 25 Norte 0 -- -- 47
2017-08-15 18:00:00 33.7 7 Noroeste 20 Oeste 0 -- -- 36
2017-08-15 17:00:00 34.5 8 Oeste 22 Sudoeste 0 -- -- 28
2017-08-15 16:00:00 34.3 8 Sur 27 Sudoeste 0 -- -- 28
2017-08-15 15:00:00 33.8 17 Sur 35 Sudoeste 0 -- -- 28
2017-08-15 14:00:00 31.5 14 Sudoeste 31 Sudoeste 0 -- -- 31
2017-08-15 13:00:00 29 4 Nordeste 13 Nordeste 0 -- -- 38
2017-08-15 12:00:00 27.1 3 Noroeste 14 Noroeste 0 -- -- 44
2017-08-15 11:00:00 24.1 3 Oeste 10 Sudeste 0.2 -- -- 55
2017-08-15 10:00:00 22 4 Nordeste 6 Nordeste 0 -- -- 71
2017-08-15 09:00:00 19.6 2 Nordeste 9 Sudeste 0 -- -- 77
2017-08-15 08:00:00 17.7 8 Sudeste 20 Sur 0 -- -- 82
2017-08-15 07:00:00 18.1 15 Sur 19 Sur 0 -- -- 70
2017-08-15 06:00:00 17.7 4 Oeste 8 Sur 0 -- -- 84
2017-08-15 05:00:00 17.6 5 Sudeste 14 Sur 0 -- -- 86
2017-08-15 04:00:00 18.1 8 Sur 13 Sur 0 -- -- 84
2017-08-15 03:00:00 18.9 8 Oeste 16 Sur 0 -- -- 81
2017-08-15 02:00:00 19.5 7 Sudoeste 15 Oeste 0 -- -- 82
2017-08-15 01:00:00 20.1 5 Nordeste 20 Sur 0 -- -- 82
2017-08-15 00:00:00 20.6 12 Sudeste 22 Sudeste 0.2 -- -- 74
2017-08-14 23:00:00 21.1 9 Nordeste 54 Noroeste 0.8 -- -- 74
2017-08-14 22:00:00 26.8 32 Noroeste 66 Oeste 0.4 -- -- 51
2017-08-14 21:00:00 28.5 30 Sur 53 Sudeste 0.2 -- -- 33
2017-08-14 20:00:00 31.9 13 Sudoeste 26 Sur 0 -- -- 29
2017-08-14 19:00:00 33.3 17 Sur 38 Sudeste 0 -- -- 26
2017-08-14 18:00:00 35 22 Sur 43 Sur 0 -- -- 24
2017-08-14 17:00:00 35.7 24 Sur 43 Sur 0 -- -- 24
2017-08-14 16:00:00 36.1 19 Sur 35 Sudeste 0 -- -- 25
2017-08-14 15:00:00 35 21 Sur 35 Sur 0 -- -- 26
2017-08-14 14:00:00 33.8 24 Sur 36 Sudoeste 0 -- -- 27
2017-08-14 13:00:00 32.7 19 Sur 35 Sur 0 -- -- 29
2017-08-14 12:00:00 29.5 5 Nordeste 12 Nordeste 0 -- -- 37
2017-08-14 11:00:00 25.7 4 Nordeste 10 Este 0 -- -- 50
2017-08-14 10:00:00 22 3 Nordeste 6 Nordeste 0 -- -- 60
2017-08-14 09:00:00 18.5 3 Nordeste 5 Nordeste 0 -- -- 72
2017-08-14 08:00:00 16.7 0 Calma 6 Sudeste 0 -- -- 77
2017-08-14 07:00:00 15.8 2 Oeste 6 Sudoeste 0 -- -- 80
2017-08-14 06:00:00 16.6 0 Calma 4 Nordeste 0 -- -- 77
2017-08-14 05:00:00 17.7 2 Nordeste 9 Sur 0 -- -- 75
2017-08-14 04:00:00 17.7 3 Sur 7 Sur 0 -- -- 76
2017-08-14 03:00:00 18.7 0 Calma 4 Sudeste 0 -- -- 72
2017-08-14 02:00:00 19.7 3 Este 9 Este 0 -- -- 70
2017-08-14 01:00:00 20.7 4 Sudeste 9 Sudoeste 0 -- -- 66
2017-08-14 00:00:00 22.4 3 Este 12 Este 0 -- -- 62
2017-08-13 23:00:00 23.4 9 Sudeste 14 Sur 0 -- -- 56
2017-08-13 22:00:00 25.4 7 Sudeste 10 Este 0 -- -- 50
2017-08-13 21:00:00 29 5 Nordeste 17 Noroeste 0 -- -- 41
2017-08-13 20:00:00 31.6 6 Este 12 Nordeste 0 -- -- 27
2017-08-13 19:00:00 32.6 5 Nordeste 14 Norte 0 -- -- 24
2017-08-13 18:00:00 33 6 Norte 15 Nordeste 0 -- -- 24
2017-08-13 17:00:00 32.6 5 Norte 19 Oeste 0 -- -- 27
2017-08-13 16:00:00 31.9 8 Noroeste 24 Oeste 0 -- -- 28
2017-08-13 15:00:00 30.8 7 Norte 18 Noroeste 0 -- -- 32
2017-08-13 14:00:00 29.6 8 Sudoeste 18 Sudoeste 0 -- -- 35
2017-08-13 13:00:00 26.6 6 Norte 15 Norte 0 -- -- 43
2017-08-13 12:00:00 23.9 4 Norte 10 Nordeste 0 -- -- 49
2017-08-13 11:00:00 21.5 6 Nordeste 11 Nordeste 0 -- -- 58
2017-08-13 10:00:00 19 7 Este 15 Este 0 -- -- 67
2017-08-13 09:00:00 16.6 8 Este 14 Este 0 -- -- 77
2017-08-13 08:00:00 14.9 5 Este 13 Este 0 -- -- 81
2017-08-13 07:00:00 14.1 5 Este 17 Este 0 -- -- 84
2017-08-13 06:00:00 14.4 2 Nordeste 12 Este 0 -- -- 80
2017-08-13 05:00:00 14.9 3 Este 11 Este 0 -- -- 77
2017-08-13 04:00:00 15.9 5 Sudeste 16 Sudeste 0 -- -- 73
2017-08-13 03:00:00 16.7 10 Sudeste 15 Este 0 -- -- 71
2017-08-13 02:00:00 17.3 9 Sudeste 17 Este 0 -- -- 68
2017-08-13 01:00:00 17.8 9 Sudeste 13 Este 0 -- -- 65
2017-08-13 00:00:00 19.1 5 Sudeste 10 Norte 0 -- -- 58
2017-08-12 23:00:00 20.7 4 Nordeste 15 Norte 0 -- -- 53
2017-08-12 22:00:00 22.1 7 Norte 21 Noroeste 0 -- -- 48
2017-08-12 21:00:00 24.3 8 Noroeste 19 Noroeste 0 -- -- 42
2017-08-12 20:00:00 26.8 9 Noroeste 21 Noroeste 0 -- -- 37
2017-08-12 19:00:00 27.8 15 Noroeste 32 Nordeste 0 -- -- 34
2017-08-12 18:00:00 28.5 15 Norte 32 Noroeste 0 -- -- 34
2017-08-12 17:00:00 30.4 11 Norte 24 Noroeste 0 -- -- 32
2017-08-12 16:00:00 29.1 8 Nordeste 20 Norte 0 -- -- 27
2017-08-12 15:00:00 27.9 8 Este 15 Nordeste 0 -- -- 30
2017-08-12 14:00:00 25.9 7 Nordeste 12 Nordeste 0 -- -- 34
2017-08-12 13:00:00 24 6 Este 13 Nordeste 0 -- -- 38
2017-08-12 12:00:00 21.4 6 Nordeste 10 Norte 0 -- -- 49
2017-08-12 11:00:00 18.6 4 Nordeste 11 Nordeste 0 -- -- 56
2017-08-12 10:00:00 16.8 5 Nordeste 13 Nordeste 0 -- -- 62
2017-08-12 09:00:00 15.1 4 Nordeste 10 Nordeste 0 -- -- 69
2017-08-12 08:00:00 12.7 4 Sudeste 11 Este 0 -- -- 79
2017-08-12 07:00:00 12 6 Sudeste 14 Este 0 -- -- 80
2017-08-12 06:00:00 12.3 7 Este 16 Este 0 -- -- 79
2017-08-12 05:00:00 12.6 8 Este 13 Este 0 -- -- 77
2017-08-12 04:00:00 12.8 5 Este 10 Este 0 -- -- 75
2017-08-12 03:00:00 13.5 5 Nordeste 12 Este 0 -- -- 72
2017-08-12 02:00:00 14.2 9 Este 13 Este 0 -- -- 70
2017-08-12 01:00:00 14.3 4 Sudeste 15 Norte 0 -- -- 70
2017-08-12 00:00:00 15 7 Norte 26 Noroeste 0 -- -- 68
2017-08-11 23:00:00 15.5 10 Noroeste 24 Norte 0 -- -- 65
2017-08-11 22:00:00 16.5 12 Norte 26 Noroeste 0 -- -- 61
2017-08-11 21:00:00 18.1 14 Norte 35 Norte 0 -- -- 56
2017-08-11 20:00:00 19.6 18 Norte 35 Nordeste 0 -- -- 50
2017-08-11 19:00:00 21.5 16 Norte 36 Norte 0 -- -- 44
2017-08-11 18:00:00 22.3 19 Norte 40 Norte 0 -- -- 42
2017-08-11 17:00:00 23.1 21 Norte 35 Norte 0 -- -- 39
2017-08-11 16:00:00 22.7 20 Norte 42 Nordeste 0 -- -- 40
2017-08-11 15:00:00 22.5 19 Norte 39 Nordeste 0 -- -- 39
2017-08-11 14:00:00 22 19 Norte 36 Noroeste 0 -- -- 42
2017-08-11 13:00:00 21.1 19 Norte 35 Norte 0 -- -- 43
2017-08-11 12:00:00 18.6 16 Norte 35 Norte 0 -- -- 53
2017-08-11 11:00:00 18 16 Noroeste 33 Noroeste 0 -- -- 55
2017-08-11 10:00:00 17.4 13 Norte 32 Noroeste 0 -- -- 56
2017-08-11 09:00:00 15.1 17 Noroeste 28 Noroeste 0 -- -- 66
2017-08-11 08:00:00 13 10 Noroeste 24 Noroeste 0 -- -- 72
2017-08-11 07:00:00 12 8 Noroeste 20 Noroeste 0 -- -- 77
2017-08-11 06:00:00 11.7 6 Noroeste 12 Norte 0 -- -- 79
2017-08-11 05:00:00 12.1 4 Noroeste 12 Oeste 0 -- -- 76
2017-08-11 04:00:00 12.5 12 Noroeste 23 Noroeste 0 -- -- 74
2017-08-11 03:00:00 12.9 13 Noroeste 34 Noroeste 0 -- -- 72
2017-08-11 02:00:00 13.4 12 Norte 23 Nordeste 0 -- -- 66
2017-08-11 01:00:00 13.5 12 Norte 30 Noroeste 0 -- -- 73
2017-08-11 00:00:00 13.9 17 Norte 38 Norte 0 -- -- 71
2017-08-10 23:00:00 13.8 10 Norte 21 Noroeste 0 -- -- 71
2017-08-10 22:00:00 14.6 13 Norte 26 Nordeste 0 -- -- 69
2017-08-10 21:00:00 15.3 15 Norte 36 Norte 0 -- -- 71
2017-08-10 20:00:00 17 15 Norte 30 Noroeste 0 -- -- 66
2017-08-10 19:00:00 17.2 12 Norte 30 Noroeste 0 -- -- 69
2017-08-10 18:00:00 16.2 21 Noroeste 37 Noroeste 0 -- -- 79
2017-08-10 17:00:00 17.2 21 Noroeste 40 Noroeste 0 -- -- 67
2017-08-10 16:00:00 17.8 16 Norte 38 Noroeste 0 -- -- 65
2017-08-10 15:00:00 20.1 17 Noroeste 33 Noroeste 0 -- -- 57
2017-08-10 14:00:00 18.6 14 Norte 33 Noroeste 0 -- -- 61
2017-08-10 13:00:00 17.5 11 Noroeste 30 Noroeste 0 -- -- 65
2017-08-10 12:00:00 17.6 13 Norte 27 Norte 0 -- -- 63
2017-08-10 11:00:00 15.7 11 Norte 26 Noroeste 0 -- -- 70
2017-08-10 10:00:00 14.7 12 Noroeste 28 Noroeste 0 -- -- 70
2017-08-10 09:00:00 15.4 8 Norte 30 Noroeste 0 -- -- 67
2017-08-10 08:00:00 14.4 10 Norte 26 Noroeste 0 -- -- 69
2017-08-10 07:00:00 13.7 11 Norte 20 Noroeste 0 -- -- 75
2017-08-10 06:00:00 13.8 6 Noroeste 18 Noroeste 0 -- -- 75
2017-08-10 05:00:00 13.5 6 Norte 27 Noroeste 0 -- -- 74
2017-08-10 04:00:00 12.9 4 Norte 18 Noroeste 0 -- -- 76
2017-08-10 03:00:00 13.7 11 Noroeste 28 Norte 0 -- -- 72
2017-08-10 02:00:00 13.9 10 Norte 27 Noroeste 0 -- -- 74
2017-08-10 01:00:00 13.6 15 Noroeste 27 Noroeste 0 -- -- 75
2017-08-10 00:00:00 13.4 9 Noroeste 25 Noroeste 0 -- -- 69
2017-08-09 23:00:00 14.1 12 Noroeste 24 Noroeste 0 -- -- 67
2017-08-09 22:00:00 14.4 10 Noroeste 32 Norte 0 -- -- 64
2017-08-09 21:00:00 15.9 12 Norte 42 Norte 0 -- -- 56
2017-08-09 20:00:00 17.7 23 Norte 49 Norte 0 -- -- 50
2017-08-09 19:00:00 19.6 22 Norte 45 Nordeste 0 -- -- 41
2017-08-09 18:00:00 20.6 25 Noroeste 43 Noroeste 0 -- -- 38
2017-08-09 17:00:00 21.4 17 Norte 48 Noroeste 0 -- -- 41
2017-08-09 16:00:00 20.2 21 Norte 40 Norte 0 -- -- 45
2017-08-09 15:00:00 17.8 25 Norte 50 Noroeste 0 -- -- 55
2017-08-09 14:00:00 20.9 21 Nordeste 39 Noroeste 0 -- -- 46
2017-08-09 13:00:00 19 23 Noroeste 39 Noroeste 0 -- -- 52
2017-08-09 12:00:00 19 17 Noroeste 36 Noroeste 0 -- -- 54
2017-08-09 11:00:00 19.4 15 Noroeste 25 Noroeste 0 -- -- 51
2017-08-09 10:00:00 17.3 11 Nordeste 17 Nordeste 0 -- -- 62
2017-08-09 09:00:00 14.4 8 Este 18 Este 0 -- -- 71
2017-08-09 08:00:00 13.2 8 Este 14 Este 0 -- -- 75
2017-08-09 07:00:00 11.2 6 Este 12 Este 0 -- -- 82
2017-08-09 06:00:00 10.9 4 Sur 9 Sur 0 -- -- 83
2017-08-09 05:00:00 12.3 2 Oeste 15 Sur 0 -- -- 74
2017-08-09 04:00:00 13.3 5 Sur 9 Sudoeste 0 -- -- 72
2017-08-09 03:00:00 14.2 5 Norte 12 Norte 0 -- -- 69
2017-08-09 02:00:00 14.1 4 Nordeste 15 Norte 0 -- -- 70
2017-08-09 01:00:00 14.4 2 Norte 19 Noroeste 0 -- -- 70
2017-08-09 00:00:00 14.6 6 Noroeste 16 Noroeste 0 -- -- 69
2017-08-08 23:00:00 15.3 8 Norte 23 Nordeste 0 -- -- 66
2017-08-08 22:00:00 16 11 Nordeste 25 Nordeste 0 -- -- 63
2017-08-08 21:00:00 17.3 14 Nordeste 26 Norte 0 -- -- 59
2017-08-08 20:00:00 18.6 21 Nordeste 40 Nordeste 0 -- -- 57
2017-08-08 19:00:00 20.1 13 Norte 39 Nordeste 0 -- -- 53
2017-08-08 18:00:00 20.1 22 Norte 41 Norte 0 -- -- 55
2017-08-08 17:00:00 22.5 18 Norte 48 Noroeste 0 -- -- 49
2017-08-08 16:00:00 23.5 23 Noroeste 44 Noroeste 0 -- -- 43
2017-08-08 15:00:00 23.4 19 Norte 39 Norte 0 -- -- 44
2017-08-08 14:00:00 22.9 22 Noroeste 41 Noroeste 0 -- -- 45
2017-08-08 13:00:00 21.8 21 Norte 37 Noroeste 0 -- -- 50
2017-08-08 12:00:00 20.4 21 Noroeste 37 Noroeste 0 -- -- 53
2017-08-08 11:00:00 19.8 21 Noroeste 31 Noroeste 0 -- -- 55
2017-08-08 10:00:00 18.8 10 Norte 28 Noroeste 0 -- -- 55
2017-08-08 09:00:00 16.1 9 Noroeste 34 Noroeste 0 -- -- 69
2017-08-08 08:00:00 16 11 Norte 27 Noroeste 0 -- -- 72
2017-08-08 07:00:00 16.5 11 Norte 25 Nordeste 0 -- -- 72
2017-08-08 06:00:00 17 8 Norte 27 Nordeste 0 -- -- 75
2017-08-08 05:00:00 17.3 16 Nordeste 29 Nordeste 0 -- -- 76
2017-08-08 04:00:00 17.9 10 Norte 24 Norte 0 -- -- 75
2017-08-08 03:00:00 18.1 8 Nordeste 32 Norte 0 -- -- 73
2017-08-08 02:00:00 18.7 17 Nordeste 41 Norte 0 -- -- 71
2017-08-08 01:00:00 19.4 10 Nordeste 23 Nordeste 0 -- -- 71
2017-08-08 00:00:00 20.1 5 Norte 25 Nordeste 0 -- -- 73
2017-08-07 23:00:00 20.6 13 Nordeste 32 Noroeste 0 -- -- 74
2017-08-07 22:00:00 23.4 14 Noroeste 36 Noroeste 0 -- -- 68
2017-08-07 21:00:00 28.5 8 Norte 26 Nordeste 0 -- -- 52
2017-08-07 20:00:00 32.1 10 Sudeste 20 Sudeste 0 -- -- 42
2017-08-07 19:00:00 32.1 9 Sudeste 28 Sur 0 -- -- 41
2017-08-07 18:00:00 33.2 14 Sur 28 Sudeste 0 -- -- 39
2017-08-07 17:00:00 32.7 10 Sudeste 28 Sudeste 0 -- -- 39
2017-08-07 16:00:00 33.4 13 Sur 28 Sur 0 -- -- 38
2017-08-07 15:00:00 32.2 15 Sur 32 Sur 0 -- -- 43
2017-08-07 14:00:00 30.8 18 Sur 32 Sur 0 -- -- 49
2017-08-07 13:00:00 28.1 16 Sur 30 Sudoeste 0 -- -- 58
2017-08-07 12:00:00 26.8 14 Sur 24 Sur 0 -- -- 59
2017-08-07 11:00:00 22.7 3 Nordeste 10 Este 0 -- -- 65
2017-08-07 10:00:00 19.9 3 Norte 6 Noroeste 0 -- -- 72
2017-08-07 09:00:00 18.5 0 Calma 5 Nordeste 0 -- -- 76
2017-08-07 08:00:00 17.9 2 Oeste 4 Oeste 0 -- -- 78
2017-08-07 07:00:00 17.6 2 Oeste 4 Nordeste 0 -- -- 80
2017-08-07 06:00:00 17.8 5 Sur 9 Sur 0 -- -- 78
2017-08-07 05:00:00 17.7 7 Sudeste 10 Este 0 -- -- 77
2017-08-07 04:00:00 18.2 6 Sudeste 12 Sudeste 0 -- -- 75
2017-08-07 03:00:00 17.9 7 Sudeste 14 Este 0 -- -- 76
2017-08-07 02:00:00 18.4 8 Este 18 Este 0 -- -- 74
2017-08-07 01:00:00 19 9 Sudeste 18 Este 0 -- -- 71
2017-08-07 00:00:00 19.2 9 Sudeste 18 Este 0 -- -- 70
2017-08-06 23:00:00 19.8 9 Este 15 Nordeste 0 -- -- 67
2017-08-06 22:00:00 21.4 10 Este 18 Nordeste 0 -- -- 60
2017-08-06 21:00:00 24 6 Nordeste 18 Nordeste 0 -- -- 53
2017-08-06 20:00:00 26.7 10 Norte 22 Nordeste 0 -- -- 47
2017-08-06 19:00:00 28.7 9 Nordeste 25 Norte 0 -- -- 44
2017-08-06 18:00:00 29.3 9 Norte 22 Norte 0 -- -- 42
2017-08-06 17:00:00 29.1 6 Norte 16 Nordeste 0 -- -- 42
2017-08-06 16:00:00 27.9 10 Norte 19 Norte 0 -- -- 43
2017-08-06 15:00:00 27.1 9 Nordeste 17 Noroeste 0 -- -- 45
2017-08-06 14:00:00 25.6 9 Nordeste 20 Norte 0 -- -- 44
2017-08-06 13:00:00 23.3 8 Norte 17 Noroeste 0 -- -- 51
2017-08-06 12:00:00 21 9 Norte 22 Norte 0 -- -- 53
2017-08-06 11:00:00 20.1 11 Norte 20 Nordeste 0 -- -- 56
2017-08-06 10:00:00 18.5 11 Nordeste 22 Nordeste 0 -- -- 63
2017-08-06 09:00:00 17.6 12 Norte 22 Norte 0 -- -- 64
2017-08-06 08:00:00 15.9 10 Norte 27 Norte 0 -- -- 70
2017-08-06 07:00:00 14.9 9 Nordeste 26 Nordeste 0 -- -- 72
2017-08-06 06:00:00 15.1 13 Nordeste 33 Nordeste 0.2 -- -- 71
2017-08-06 05:00:00 15.4 7 Norte 25 Norte 0 -- -- 72
2017-08-06 04:00:00 15.3 15 Norte 28 Norte 3 -- -- 76
2017-08-06 03:00:00 15.8 9 Norte 25 Norte 3.4 -- -- 80
2017-08-06 02:00:00 17.2 8 Nordeste 30 Nordeste 0.4 -- -- 79
2017-08-06 01:00:00 18.8 16 Norte 36 Norte 0 -- -- 69
2017-08-06 00:00:00 18.9 11 Nordeste 30 Nordeste 0 -- -- 68
2017-08-05 23:00:00 19 17 Nordeste 35 Norte 0 -- -- 68
2017-08-05 22:00:00 19.7 5 Este 31 Noroeste 0 -- -- 65
2017-08-05 21:00:00 20.8 14 Norte 31 Noroeste 0 -- -- 62
2017-08-05 20:00:00 22.1 12 Norte 43 Norte 0 -- -- 60
2017-08-05 19:00:00 24.1 20 Norte 42 Norte 0 -- -- 56
2017-08-05 18:00:00 26.5 19 Norte 43 Norte 0 -- -- 52
2017-08-05 17:00:00 28.9 19 Norte 38 Norte 0 -- -- 48
2017-08-05 16:00:00 30.3 17 Norte 37 Norte 0 -- -- 47
2017-08-05 15:00:00 30.8 17 Norte 34 Norte 0 -- -- 48
2017-08-05 14:00:00 31 13 Norte 24 Noroeste 0 -- -- 47
2017-08-05 13:00:00 30.9 11 Norte 26 Nordeste 0 -- -- 47
2017-08-05 12:00:00 30.1 11 Nordeste 21 Nordeste 0 -- -- 50
2017-08-05 11:00:00 27.9 7 Nordeste 16 Este 0 -- -- 56
2017-08-05 10:00:00 25.2 12 Este 20 Este 0 -- -- 64
2017-08-05 09:00:00 22.6 11 Este 17 Este 0 -- -- 72
2017-08-05 08:00:00 21.7 8 Este 15 Este 0 -- -- 76
2017-08-05 07:00:00 20.5 9 Este 19 Este 0 -- -- 79
2017-08-05 06:00:00 20.8 9 Este 18 Este 0 -- -- 78
2017-08-05 05:00:00 21.2 12 Este 20 Este 0 -- -- 77
2017-08-05 04:00:00 21.6 9 Este 17 Este 0 -- -- 75
2017-08-05 03:00:00 22.1 10 Este 19 Este 0 -- -- 73
2017-08-05 02:00:00 22.6 10 Este 18 Sudeste 0 -- -- 70
2017-08-05 01:00:00 23.4 6 Este 12 Este 0 -- -- 66
2017-08-05 00:00:00 24.1 6 Sudeste 9 Sudeste 0 -- -- 63
2017-08-04 23:00:00 25.7 4 Oeste 13 Noroeste 0 -- -- 57
2017-08-04 22:00:00 27.1 4 Este 12 Noroeste 0 -- -- 52
2017-08-04 21:00:00 29.5 6 Norte 22 Norte 0 -- -- 46
2017-08-04 20:00:00 31.1 13 Norte 35 Nordeste 0 -- -- 44
2017-08-04 19:00:00 32.8 21 Nordeste 32 Nordeste 0 -- -- 42
2017-08-04 18:00:00 34.9 12 Norte 30 Noroeste 0 -- -- 35
2017-08-04 17:00:00 35.5 11 Norte 22 Norte 0 -- -- 35
2017-08-04 16:00:00 35.3 10 Norte 23 Noroeste 0 -- -- 33
2017-08-04 15:00:00 34.8 9 Nordeste 22 Noroeste 0 -- -- 33
2017-08-04 14:00:00 33.6 12 Nordeste 23 Nordeste 0 -- -- 36
2017-08-04 13:00:00 32.9 12 Nordeste 19 Nordeste 0 -- -- 36
2017-08-04 12:00:00 30.1 5 Nordeste 13 Nordeste 0 -- -- 43
2017-08-04 11:00:00 27.3 6 Nordeste 14 Este 0 -- -- 55
2017-08-04 10:00:00 24.5 10 Este 19 Este 0 -- -- 63
2017-08-04 09:00:00 22.4 6 Este 14 Sudeste 0 -- -- 71
2017-08-04 08:00:00 20.6 7 Sudeste 15 Sudeste 0 -- -- 77
2017-08-04 07:00:00 19.6 5 Sudeste 13 Este 0 -- -- 81
2017-08-04 06:00:00 19.8 8 Sudeste 15 Este 0 -- -- 81
2017-08-04 05:00:00 20.3 7 Sudeste 18 Este 0 -- -- 80
2017-08-04 04:00:00 21 11 Este 23 Este 0 -- -- 77
2017-08-04 03:00:00 21.6 10 Este 19 Este 0 -- -- 75
2017-08-04 02:00:00 22.5 10 Este 15 Este 0 -- -- 71
2017-08-04 01:00:00 23.2 8 Este 14 Este 0 -- -- 68
2017-08-04 00:00:00 23.9 9 Sudeste 13 Este 0 -- -- 65
2017-08-03 23:00:00 25.4 7 Este 14 Este 0 -- -- 61
2017-08-03 22:00:00 27.6 7 Nordeste 13 Nordeste 0 -- -- 54
2017-08-03 21:00:00 30.8 3 Este 20 Norte 0 -- -- 45
2017-08-03 20:00:00 33.3 8 Norte 22 Norte 0 -- -- 39
2017-08-03 19:00:00 35.6 12 Norte 27 Noroeste 0 -- -- 32
2017-08-03 18:00:00 38 14 Oeste 22 Noroeste 0 -- -- 20
2017-08-03 17:00:00 37.6 13 Noroeste 26 Noroeste 0 -- -- 20
2017-08-03 16:00:00 37.5 9 Nordeste 25 Oeste 0 -- -- 20
2017-08-03 15:00:00 36.8 11 Noroeste 28 Oeste 0 -- -- 20
2017-08-03 14:00:00 35.7 10 Oeste 26 Sudoeste 0 -- -- 27
2017-08-03 13:00:00 34.5 9 Sudoeste 21 Sudeste 0 -- -- 31
2017-08-03 12:00:00 31.4 5 Nordeste 11 Nordeste 0 -- -- 41
2017-08-03 11:00:00 28.4 5 Nordeste 10 Nordeste 0 -- -- 48
2017-08-03 10:00:00 25.7 5 Nordeste 9 Este 0 -- -- 58
2017-08-03 09:00:00 23.2 5 Este 9 Este 0 -- -- 68
2017-08-03 08:00:00 20.1 3 Noroeste 6 Sudeste 0 -- -- 67
2017-08-03 07:00:00 19.7 4 Sudeste 6 Sudeste 0 -- -- 64
2017-08-03 06:00:00 21.1 0 Calma 7 Sudeste 0 -- -- 59
2017-08-03 05:00:00 21.8 0 Calma 8 Sur 0 -- -- 55
2017-08-03 04:00:00 22.9 3 Sudeste 10 Sur 0 -- -- 52
2017-08-03 03:00:00 23.3 5 Sur 11 Sur 0 -- -- 51
2017-08-03 02:00:00 24.8 6 Sudoeste 10 Sudoeste 0 -- -- 47
2017-08-03 01:00:00 26.2 5 Oeste 8 Oeste 0 -- -- 42
2017-08-03 00:00:00 27.6 4 Este 10 Nordeste 0 -- -- 39
2017-08-02 23:00:00 29.2 3 Norte 25 Sudeste 0 -- -- 37
2017-08-02 22:00:00 30.9 16 Sudeste 31 Sudeste 0 -- -- 33
2017-08-02 21:00:00 32 22 Sur 43 Sur 0 -- -- 31
2017-08-02 20:00:00 34.7 19 Sur 37 Sur 0 -- -- 26
2017-08-02 19:00:00 35.5 19 Sur 43 Sur 0 -- -- 24
2017-08-02 18:00:00 36.3 24 Sur 38 Sur 0 -- -- 24
2017-08-02 17:00:00 36.3 14 Sur 39 Sudoeste 0 -- -- 25
2017-08-02 16:00:00 35.5 24 Sur 47 Sudoeste 0 -- -- 27
2017-08-02 15:00:00 35.2 27 Sur 47 Sudeste 0 -- -- 27
2017-08-02 14:00:00 34.1 20 Sur 39 Sur 0 -- -- 33
2017-08-02 13:00:00 33 23 Sur 35 Sur 0 -- -- 40
2017-08-02 12:00:00 28.9 5 Nordeste 11 Nordeste 0 -- -- 54
2017-08-02 11:00:00 25.2 4 Norte 9 Nordeste 0 -- -- 61
2017-08-02 10:00:00 21.4 3 Norte 9 Nordeste 0 -- -- 72
2017-08-02 09:00:00 19.1 4 Nordeste 8 Este 0 -- -- 79
2017-08-02 08:00:00 16.8 0 Calma 5 Sudeste 0 -- -- 87
2017-08-02 07:00:00 15.9 3 Sudoeste 6 Oeste 0 -- -- 89
2017-08-02 06:00:00 16.4 2 Oeste 3 Sudoeste 0 -- -- 87
2017-08-02 05:00:00 17.2 0 Calma 8 Sudeste 0 -- -- 84
2017-08-02 04:00:00 18 3 Nordeste 12 Sudeste 0 -- -- 82
2017-08-02 03:00:00 18.3 8 Sudeste 13 Este 0 -- -- 81
2017-08-02 02:00:00 19 3 Sudeste 17 Este 0 -- -- 76
2017-08-02 01:00:00 19.7 8 Sudeste 15 Este 0 -- -- 75
2017-08-02 00:00:00 20.2 10 Sudeste 17 Este 0 -- -- 72
2017-08-01 23:00:00 20.9 7 Sudeste 13 Este 0 -- -- 70
2017-08-01 22:00:00 22.6 9 Este 15 Nordeste 0 -- -- 63
2017-08-01 21:00:00 26.2 6 Este 15 Nordeste 0 -- -- 52
2017-08-01 20:00:00 29.2 10 Norte 20 Nordeste 0 -- -- 46
2017-08-01 19:00:00 30.9 10 Este 21 Este 0 -- -- 43
2017-08-01 18:00:00 30.4 11 Este 25 Nordeste 0 -- -- 45
2017-08-01 17:00:00 31.3 7 Nordeste 15 Nordeste 0 -- -- 43
2017-08-01 16:00:00 30.9 6 Nordeste 14 Norte 0 -- -- 46
2017-08-01 15:00:00 29.5 9 Norte 15 Noroeste 0 -- -- 50
2017-08-01 14:00:00 28.7 5 Norte 14 Noroeste 0 -- -- 53
2017-08-01 13:00:00 27.9 6 Nordeste 13 Nordeste 0 -- -- 53
2017-08-01 12:00:00 25.8 5 Nordeste 14 Nordeste 0 -- -- 57
2017-08-01 11:00:00 21.9 8 Sudeste 18 Sudeste 0 -- -- 67
2017-08-01 10:00:00 20.4 7 Este 17 Este 0 -- -- 71
2017-08-01 09:00:00 19.1 7 Sudeste 20 Este 0 -- -- 74
2017-08-01 08:00:00 18.1 10 Sudeste 19 Sudeste 0 -- -- 77
2017-08-01 07:00:00 17.9 10 Este 19 Este 0 -- -- 79
2017-08-01 06:00:00 18 9 Sudeste 15 Sudeste 0 -- -- 77
2017-08-01 05:00:00 17.7 9 Este 19 Este 0 -- -- 78
2017-08-01 04:00:00 17.9 8 Sudeste 15 Este 0 -- -- 80
2017-08-01 03:00:00 18.1 8 Sudeste 15 Este 0 -- -- 81
2017-08-01 02:00:00 18.1 6 Sudeste 9 Este 0 -- -- 83
2017-08-01 01:00:00 18.7 6 Este 14 Este 0 -- -- 81
2017-08-01 00:00:00 19.7 9 Este 19 Nordeste 0 -- -- 79
2017-07-31 23:00:00 21.3 9 Nordeste 18 Nordeste 0 -- -- 69
2017-07-31 22:00:00 22.1 15 Nordeste 26 Nordeste 0 -- -- 67
2017-07-31 21:00:00 24.5 6 Este 19 Nordeste 0 -- -- 60
2017-07-31 20:00:00 27.8 10 Nordeste 25 Nordeste 0 -- -- 52
2017-07-31 19:00:00 30.8 18 Norte 39 Noroeste 0 -- -- 45
2017-07-31 18:00:00 36.4 14 Sudoeste 32 Sudoeste 0 -- -- 31
2017-07-31 17:00:00 36.3 17 Sudoeste 34 Sur 0 -- -- 31
2017-07-31 16:00:00 35.8 18 Sur 39 Sur 0 -- -- 31
2017-07-31 15:00:00 34.4 19 Sur 35 Sudoeste 0 -- -- 37
2017-07-31 14:00:00 32.4 19 Sudoeste 33 Sur 0 -- -- 45
2017-07-31 13:00:00 29.1 15 Sudoeste 32 Sur 0 -- -- 51
2017-07-31 12:00:00 27.4 18 Sur 28 Sur 0 -- -- 53
2017-07-31 11:00:00 23.9 6 Norte 10 Este 0 -- -- 59
2017-07-31 10:00:00 22.3 7 Nordeste 14 Nordeste 0 -- -- 63
2017-07-31 09:00:00 20.1 8 Este 14 Este 0 -- -- 69
2017-07-31 08:00:00 18.1 9 Sudeste 15 Sudeste 0 -- -- 76
2017-07-31 07:00:00 17 8 Sudeste 18 Sudeste 0 -- -- 80
2017-07-31 06:00:00 17.5 10 Sudeste 18 Este 0 -- -- 78
2017-07-31 05:00:00 17.9 8 Sudeste 15 Este 0 -- -- 77
2017-07-31 04:00:00 18.5 8 Este 19 Sudeste 0 -- -- 75
2017-07-31 03:00:00 18.6 7 Sudeste 13 Este 0 -- -- 76
2017-07-31 02:00:00 18.7 3 Sur 10 Nordeste 0 -- -- 76
2017-07-31 01:00:00 19.8 3 Este 11 Nordeste 0 -- -- 74
2017-07-31 00:00:00 20.4 6 Este 19 Nordeste 0 -- -- 72
2017-07-30 23:00:00 21.6 7 Norte 20 Nordeste 0 -- -- 68
2017-07-30 22:00:00 22.9 12 Nordeste 21 Nordeste 0 -- -- 66
2017-07-30 21:00:00 25.4 13 Este 23 Este 0 -- -- 60
2017-07-30 20:00:00 28.4 9 Nordeste 26 Norte 0 -- -- 52
2017-07-30 19:00:00 31.6 17 Nordeste 28 Noroeste 0 -- -- 43
2017-07-30 18:00:00 37.4 12 Oeste 32 Sudoeste 0 -- -- 27
2017-07-30 17:00:00 36.9 13 Sudoeste 37 Sudoeste 0 -- -- 29
2017-07-30 16:00:00 36.3 13 Sur 33 Sur 0 -- -- 32
2017-07-30 15:00:00 36.2 15 Sudoeste 28 Sur 0 -- -- 29
2017-07-30 14:00:00 34.2 13 Sur 29 Sur 0 -- -- 36
2017-07-30 13:00:00 33.2 13 Sudoeste 28 Sur 0 -- -- 42
2017-07-30 12:00:00 29.2 7 Norte 10 Nordeste 0 -- -- 52
2017-07-30 11:00:00 27.1 4 Nordeste 13 Este 0 -- -- 57
2017-07-30 10:00:00 25.2 9 Nordeste 15 Nordeste 0 -- -- 62
2017-07-30 09:00:00 22.5 4 Este 8 Este 0 -- -- 72
2017-07-30 08:00:00 21 6 Este 14 Sudeste 0 -- -- 76
2017-07-30 07:00:00 20.9 5 Sudeste 21 Sudeste 0 -- -- 77
2017-07-30 06:00:00 21.2 9 Este 18 Este 0 -- -- 76
2017-07-30 05:00:00 21.6 9 Sur 14 Sudeste 0 -- -- 74
2017-07-30 04:00:00 22.1 5 Este 8 Este 0 -- -- 66
2017-07-30 03:00:00 22.7 5 Sudeste 8 Sudeste 0 -- -- 61
2017-07-30 02:00:00 23.7 3 Sudoeste 10 Sur 0 -- -- 60
2017-07-30 01:00:00 25.3 4 Sur 10 Sur 0 -- -- 52
2017-07-30 00:00:00 26 3 Sudoeste 8 Norte 0 -- -- 47
2017-07-29 23:00:00 27.6 3 Nordeste 10 Sur 0 -- -- 43
2017-07-29 22:00:00 29.3 6 Sudoeste 14 Sur 0 -- -- 38
2017-07-29 21:00:00 33.7 5 Sudoeste 17 Oeste 0 -- -- 30
2017-07-29 20:00:00 35.6 11 Noroeste 19 Oeste 0 -- -- 28
2017-07-29 19:00:00 36.6 10 Noroeste 22 Sudoeste 0 -- -- 28
2017-07-29 18:00:00 36.6 11 Sudoeste 35 Sur 0 -- -- 29
2017-07-29 17:00:00 37.1 14 Sudoeste 31 Sudoeste 0 -- -- 29
2017-07-29 16:00:00 36.4 16 Sur 29 Sur 0 -- -- 31
2017-07-29 15:00:00 36 16 Sur 33 Sur 0 -- -- 33
2017-07-29 14:00:00 34.8 20 Sur 41 Sur 0 -- -- 38
2017-07-29 13:00:00 33.6 19 Sur 37 Sur 0 -- -- 39
2017-07-29 12:00:00 29.5 8 Sudeste 24 Sur 0 -- -- 49
2017-07-29 11:00:00 25.2 4 Este 10 Nordeste 0 -- -- 47
2017-07-29 10:00:00 22.4 4 Nordeste 10 Nordeste 0 -- -- 46
2017-07-29 09:00:00 19.6 4 Nordeste 6 Nordeste 0 -- -- 62
2017-07-29 08:00:00 17 2 Este 6 Sudeste 0 -- -- 73
2017-07-29 07:00:00 16.2 2 Sudoeste 5 Oeste 0 -- -- 69
2017-07-29 06:00:00 16.7 4 Oeste 6 Noroeste 0 -- -- 68
2017-07-29 05:00:00 18.3 2 Este 14 Sudeste 0 -- -- 63
2017-07-29 04:00:00 19.3 9 Sudeste 15 Sudeste 0 -- -- 60
2017-07-29 03:00:00 20.8 7 Sudeste 19 Sudeste 0 -- -- 54
2017-07-29 02:00:00 21.1 10 Sudeste 23 Este 0 -- -- 55
2017-07-29 01:00:00 21.9 10 Sudeste 20 Este 0 -- -- 51
2017-07-29 00:00:00 23.6 10 Este 16 Este 0 -- -- 36
2017-07-28 23:00:00 24.9 3 Este 13 Norte 0 -- -- 30
2017-07-28 22:00:00 26.5 3 Nordeste 10 Nordeste 0 -- -- 33
2017-07-28 21:00:00 29.2 5 Norte 25 Norte 0 -- -- 29
2017-07-28 20:00:00 30.7 13 Norte 32 Nordeste 0 -- -- 25
2017-07-28 19:00:00 33.2 15 Norte 32 Norte 0 -- -- 38
2017-07-28 18:00:00 35.3 12 Nordeste 19 Nordeste 0 -- -- 29
2017-07-28 17:00:00 35.4 8 Norte 23 Noroeste 0 -- -- 27
2017-07-28 16:00:00 34.7 10 Oeste 26 Sudeste 0 -- -- 28
2017-07-28 15:00:00 33.9 9 Oeste 21 Noroeste 0 -- -- 33
2017-07-28 14:00:00 32.3 6 Sudeste 19 Noroeste 0 -- -- 38
2017-07-28 13:00:00 30.7 7 Nordeste 14 Nordeste 0 -- -- 44
2017-07-28 12:00:00 27.8 6 Nordeste 13 Nordeste 0 -- -- 51
2017-07-28 11:00:00 25.8 5 Sudeste 14 Este 0 -- -- 56
2017-07-28 10:00:00 23.1 8 Este 16 Este 0 -- -- 64
2017-07-28 09:00:00 21.3 6 Este 17 Este 0 -- -- 70
2017-07-28 08:00:00 19.6 6 Este 17 Este 0 -- -- 77
2017-07-28 07:00:00 18 9 Sudeste 17 Sudeste 0 -- -- 83
2017-07-28 06:00:00 18.4 8 Sudeste 16 Este 0 -- -- 81
2017-07-28 05:00:00 19.1 9 Sudeste 17 Este 0 -- -- 78
2017-07-28 04:00:00 19.4 11 Este 17 Este 0 -- -- 77
2017-07-28 03:00:00 19.4 9 Sudeste 13 Sudeste 0 -- -- 77
2017-07-28 02:00:00 19.8 5 Sudeste 10 Sudeste 0 -- -- 74
2017-07-28 01:00:00 20.9 5 Este 13 Nordeste 0 -- -- 69
2017-07-28 00:00:00 22 3 Este 21 Nordeste 0 -- -- 64
2017-07-27 23:00:00 22.9 8 Nordeste 17 Sudeste 0 -- -- 62
2017-07-27 22:00:00 24.4 8 Sudoeste 22 Noroeste 0 -- -- 57
2017-07-27 21:00:00 27.8 10 Norte 28 Norte 0 -- -- 47
2017-07-27 20:00:00 30.3 15 Norte 27 Nordeste 0 -- -- 37
2017-07-27 19:00:00 31.8 19 Nordeste 33 Nordeste 0 -- -- 36
2017-07-27 18:00:00 33.7 13 Norte 32 Noroeste 0 -- -- 30
2017-07-27 17:00:00 34.1 12 Norte 26 Noroeste 0 -- -- 26
2017-07-27 16:00:00 33.7 7 Nordeste 21 Este 0 -- -- 26
2017-07-27 15:00:00 32.8 7 Nordeste 15 Este 0 -- -- 28
2017-07-27 14:00:00 31.4 6 Nordeste 14 Norte 0 -- -- 30
2017-07-27 13:00:00 29.4 5 Este 16 Nordeste 0 -- -- 32
2017-07-27 12:00:00 27.3 6 Este 13 Este 0 -- -- 37
2017-07-27 11:00:00 23.4 5 Nordeste 11 Nordeste 0 -- -- 48
2017-07-27 10:00:00 20.2 4 Nordeste 8 Nordeste 0 -- -- 61
2017-07-27 09:00:00 18.1 5 Este 10 Sudeste 0 -- -- 67
2017-07-27 08:00:00 15.8 4 Este 9 Sudeste 0 -- -- 76
2017-07-27 07:00:00 13.8 5 Sudeste 7 Sudeste 0 -- -- 84
2017-07-27 06:00:00 14.7 2 Este 5 Este 0 -- -- 83
2017-07-27 05:00:00 15.5 3 Este 6 Sudeste 0 -- -- 80
2017-07-27 04:00:00 17.1 2 Sudeste 5 Este 0 -- -- 74
2017-07-27 03:00:00 18 4 Este 12 Este 0 -- -- 71
2017-07-27 02:00:00 19.1 5 Este 16 Este 0 -- -- 66
2017-07-27 01:00:00 20.1 9 Sudeste 15 Sudeste 0 -- -- 62
2017-07-27 00:00:00 19.9 4 Sur 8 Nordeste 0 -- -- 66
2017-07-26 23:00:00 21.5 6 Nordeste 16 Norte 0 -- -- 62
2017-07-26 22:00:00 22.5 9 Norte 23 Nordeste 0 -- -- 57
2017-07-26 21:00:00 24.5 15 Nordeste 27 Nordeste 0 -- -- 52
2017-07-26 20:00:00 26.8 12 Norte 28 Noroeste 0 -- -- 47
2017-07-26 19:00:00 27.5 13 Norte 36 Noroeste 0 -- -- 45
2017-07-26 18:00:00 28.4 17 Norte 34 Norte 0 -- -- 42
2017-07-26 17:00:00 28.8 17 Norte 33 Norte 0 -- -- 42
2017-07-26 16:00:00 28.8 18 Norte 34 Noroeste 0 -- -- 43
2017-07-26 15:00:00 28.1 17 Noroeste 30 Noroeste 0 -- -- 44
2017-07-26 14:00:00 27.7 14 Norte 28 Norte 0 -- -- 43
2017-07-26 13:00:00 25.9 11 Norte 26 Noroeste 0 -- -- 45
2017-07-26 12:00:00 24.3 14 Norte 29 Norte 0 -- -- 47
2017-07-26 11:00:00 23.1 11 Norte 23 Nordeste 0 -- -- 50
2017-07-26 10:00:00 20.8 9 Norte 20 Norte 0 -- -- 55
2017-07-26 09:00:00 18.7 9 Noroeste 18 Noroeste 0 -- -- 61
2017-07-26 08:00:00 16.3 8 Noroeste 19 Noroeste 0 -- -- 70
2017-07-26 07:00:00 14.9 11 Noroeste 24 Noroeste 0 -- -- 75
2017-07-26 06:00:00 15.1 15 Noroeste 26 Noroeste 0 -- -- 72
2017-07-26 05:00:00 15 9 Noroeste 22 Noroeste 0 -- -- 72
2017-07-26 04:00:00 15.4 13 Noroeste 23 Noroeste 0 -- -- 73
2017-07-26 03:00:00 15.4 10 Noroeste 22 Noroeste 0 -- -- 74
2017-07-26 02:00:00 15.8 11 Noroeste 23 Noroeste 0 -- -- 72
2017-07-26 01:00:00 15.9 11 Noroeste 17 Noroeste 0 -- -- 72
2017-07-26 00:00:00 16.5 5 Noroeste 30 Norte 0 -- -- 69
2017-07-25 23:00:00 16.8 12 Norte 23 Noroeste 0 -- -- 68
2017-07-25 22:00:00 17.4 10 Norte 34 Noroeste 0 -- -- 65
2017-07-25 21:00:00 18.6 14 Norte 39 Norte 0 -- -- 59
2017-07-25 20:00:00 20.3 19 Norte 44 Noroeste 0 -- -- 54
2017-07-25 19:00:00 21.6 20 Norte 50 Noroeste 0 -- -- 50
2017-07-25 18:00:00 22.3 26 Noroeste 53 Nordeste 0 -- -- 49
2017-07-25 17:00:00 23 25 Norte 48 Noroeste 0 -- -- 46
2017-07-25 16:00:00 22.9 24 Norte 49 Norte 0 -- -- 48
2017-07-25 15:00:00 22.8 28 Norte 52 Norte 0 -- -- 47
2017-07-25 14:00:00 21.2 23 Noroeste 50 Noroeste 0 -- -- 56
2017-07-25 13:00:00 21.3 21 Noroeste 42 Noroeste 0 -- -- 56
2017-07-25 12:00:00 21 23 Noroeste 45 Noroeste 0 -- -- 57
2017-07-25 11:00:00 20.4 17 Norte 37 Norte 0 -- -- 57
2017-07-25 10:00:00 19.2 18 Noroeste 34 Noroeste 0 -- -- 60
2017-07-25 09:00:00 17.4 17 Noroeste 30 Noroeste 0 -- -- 68
2017-07-25 08:00:00 16.9 16 Noroeste 31 Noroeste 0 -- -- 69
2017-07-25 07:00:00 15.7 17 Noroeste 33 Noroeste 0 -- -- 71
2017-07-25 06:00:00 15.4 9 Noroeste 23 Noroeste 0 -- -- 70
2017-07-25 05:00:00 16.3 12 Norte 31 Norte 0 -- -- 66
2017-07-25 04:00:00 16.5 14 Noroeste 26 Noroeste 0 -- -- 71
2017-07-25 03:00:00 16.2 14 Noroeste 27 Noroeste 0 -- -- 76
2017-07-25 02:00:00 16.3 13 Noroeste 37 Norte 0 -- -- 73
2017-07-25 01:00:00 16.8 12 Norte 23 Noroeste 0 -- -- 72
2017-07-25 00:00:00 17 8 Noroeste 22 Norte 0 -- -- 73
2017-07-24 23:00:00 17.6 8 Norte 23 Noroeste 0 -- -- 73
2017-07-24 22:00:00 17.9 14 Noroeste 30 Norte 0 -- -- 74
2017-07-24 21:00:00 19.4 18 Noroeste 39 Noroeste 0 -- -- 67
2017-07-24 20:00:00 21.1 22 Noroeste 45 Norte 0 -- -- 61
2017-07-24 19:00:00 21.9 24 Norte 48 Noroeste 0 -- -- 57
2017-07-24 18:00:00 21.2 25 Noroeste 44 Noroeste 0 -- -- 58
2017-07-24 17:00:00 22.8 21 Norte 42 Noroeste 0 -- -- 54
2017-07-24 16:00:00 23.7 17 Norte 40 Noroeste 0 -- -- 51
2017-07-24 15:00:00 23.4 19 Norte 40 Nordeste 0 -- -- 53
2017-07-24 14:00:00 24 17 Noroeste 40 Norte 0 -- -- 51
2017-07-24 13:00:00 24.3 18 Norte 37 Norte 0 -- -- 50
2017-07-24 12:00:00 23.2 20 Norte 44 Norte 0 -- -- 57
2017-07-24 11:00:00 22.3 21 Norte 36 Norte 0 -- -- 59
2017-07-24 10:00:00 20.3 15 Norte 32 Norte 0 -- -- 66
2017-07-24 09:00:00 19.6 11 Norte 25 Noroeste 0 -- -- 72
2017-07-24 08:00:00 18.5 6 Norte 19 Norte 0 -- -- 75
2017-07-24 07:00:00 18.6 8 Norte 22 Nordeste 0 -- -- 75
2017-07-24 06:00:00 18.7 9 Norte 22 Noroeste 0 -- -- 74
2017-07-24 05:00:00 19.1 6 Norte 24 Norte 0 -- -- 74
2017-07-24 04:00:00 18.8 6 Noroeste 14 Noroeste 0 -- -- 75
2017-07-24 03:00:00 18.5 7 Noroeste 17 Noroeste 0 -- -- 75
2017-07-24 02:00:00 17.6 5 Este 17 Nordeste 0 -- -- 72
2017-07-24 01:00:00 17.8 9 Nordeste 20 Norte 0 -- -- 70
2017-07-24 00:00:00 18.1 5 Nordeste 18 Norte 0 -- -- 67
2017-07-23 23:00:00 18.9 9 Norte 21 Nordeste 0 -- -- 61
2017-07-23 22:00:00 20.1 8 Nordeste 21 Noroeste 0 -- -- 56
2017-07-23 21:00:00 22.1 12 Noroeste 31 Noroeste 0 -- -- 54
2017-07-23 20:00:00 24.7 15 Norte 31 Noroeste 0 -- -- 48
2017-07-23 19:00:00 27.3 15 Noroeste 34 Noroeste 0 -- -- 40
2017-07-23 18:00:00 29.1 13 Norte 27 Norte 0 -- -- 36
2017-07-23 17:00:00 30.1 14 Norte 26 Nordeste 0 -- -- 41
2017-07-23 16:00:00 30.1 7 Nordeste 18 Nordeste 0 -- -- 44
2017-07-23 15:00:00 28.6 7 Nordeste 15 Norte 0 -- -- 47
2017-07-23 14:00:00 25.6 4 Este 11 Norte 0 -- -- 54
2017-07-23 13:00:00 23.7 3 Norte 10 Norte 0 -- -- 57
2017-07-23 12:00:00 21.6 6 Este 21 Este 0 -- -- 61
2017-07-23 11:00:00 20.3 13 Este 22 Este 0 -- -- 65
2017-07-23 10:00:00 18.5 11 Este 19 Este 0 -- -- 71
2017-07-23 09:00:00 16.7 10 Este 17 Este 0 -- -- 76
2017-07-23 08:00:00 15.7 6 Este 11 Sudeste 0 -- -- 80
2017-07-23 07:00:00 14.7 7 Sudeste 11 Sudeste 0 -- -- 83
2017-07-23 06:00:00 14.9 6 Sudeste 10 Sudeste 0 -- -- 82
2017-07-23 05:00:00 15.3 5 Sudeste 8 Este 0 -- -- 79
2017-07-23 04:00:00 16.2 5 Nordeste 15 Norte 0 -- -- 75
2017-07-23 03:00:00 16.8 8 Norte 18 Nordeste 0 -- -- 73
2017-07-23 02:00:00 17.4 10 Norte 18 Norte 0 -- -- 73
2017-07-23 01:00:00 17.9 4 Nordeste 15 Nordeste 0 -- -- 74
2017-07-23 00:00:00 18.5 6 Nordeste 19 Nordeste 0 -- -- 72